sensor_id;sensor_type;location;lat;lon;timestamp;temperature;humidity
58638;DHT22;54976;51.510;7.522;2023-04-03T00:02:40;2.10;99.90
58638;DHT22;54976;51.510;7.522;2023-04-03T00:05:41;2.20;99.90
58638;DHT22;54976;51.510;7.522;2023-04-03T00:08:41;2.00;99.90
58638;DHT22;54976;51.510;7.522;2023-04-03T00:11:42;2.10;99.90
58638;DHT22;54976;51.510;7.522;2023-04-03T00:14:43;2.10;99.90
58638;DHT22;54976;51.510;7.522;2023-04-03T00:17:43;2.00;99.90
58638;DHT22;54976;51.510;7.522;2023-04-03T00:20:44;2.20;99.90
58638;DHT22;54976;51.510;7.522;2023-04-03T00:23:44;2.00;99.90
58638;DHT22;54976;51.510;7.522;2023-04-03T00:26:45;2.10;99.90
58638;DHT22;54976;51.510;7.522;2023-04-03T00:29:45;2.00;99.90
58638;DHT22;54976;51.510;7.522;2023-04-03T00:32:48;2.30;99.90
58638;DHT22;54976;51.510;7.522;2023-04-03T00:35:49;1.80;99.90
58638;DHT22;54976;51.510;7.522;2023-04-03T00:38:51;2.50;99.90
58638;DHT22;54976;51.510;7.522;2023-04-03T00:41:51;2.30;99.90
58638;DHT22;54976;51.510;7.522;2023-04-03T00:47:56;2.80;99.90
58638;DHT22;54976;51.510;7.522;2023-04-03T00:50:59;2.80;99.90
58638;DHT22;54976;51.510;7.522;2023-04-03T00:54:03;2.80;99.90
58638;DHT22;54976;51.510;7.522;2023-04-03T00:57:05;2.70;99.90
58638;DHT22;54976;51.510;7.522;2023-04-03T01:00:09;2.80;99.90
58638;DHT22;54976;51.510;7.522;2023-04-03T01:03:10;2.70;99.90
58638;DHT22;54976;51.510;7.522;2023-04-03T01:06:11;2.80;99.90
58638;DHT22;54976;51.510;7.522;2023-04-03T01:09:13;2.90;99.90
58638;DHT22;54976;51.510;7.522;2023-04-03T01:15:24;3.00;99.90
58638;DHT22;54976;51.510;7.522;2023-04-03T01:18:26;2.80;99.70
58638;DHT22;54976;51.510;7.522;2023-04-03T01:25:17;2.90;99.70
58638;DHT22;54976;51.510;7.522;2023-04-03T01:28:25;2.70;99.70
58638;DHT22;54976;51.510;7.522;2023-04-03T01:31:31;2.70;99.70
58638;DHT22;54976;51.510;7.522;2023-04-03T01:34:33;2.80;99.60
58638;DHT22;54976;51.510;7.522;2023-04-03T01:37:34;2.70;99.40
58638;DHT22;54976;51.510;7.522;2023-04-03T01:40:35;3.00;99.60
58638;DHT22;54976;51.510;7.522;2023-04-03T01:43:36;2.60;99.40
58638;DHT22;54976;51.510;7.522;2023-04-03T01:46:36;2.80;99.40
58638;DHT22;54976;51.510;7.522;2023-04-03T01:49:37;2.90;99.40
58638;DHT22;54976;51.510;7.522;2023-04-03T01:52:38;2.70;99.20
58638;DHT22;54976;51.510;7.522;2023-04-03T01:55:39;2.70;99.60
58638;DHT22;54976;51.510;7.522;2023-04-03T01:58:39;2.60;99.40
58638;DHT22;54976;51.510;7.522;2023-04-03T02:01:40;2.70;99.20
58638;DHT22;54976;51.510;7.522;2023-04-03T02:04:41;2.50;99.00
58638;DHT22;54976;51.510;7.522;2023-04-03T02:07:41;2.70;99.20
58638;DHT22;54976;51.510;7.522;2023-04-03T02:10:42;2.00;98.80
58638;DHT22;54976;51.510;7.522;2023-04-03T02:13:42;2.50;99.00
58638;DHT22;54976;51.510;7.522;2023-04-03T02:16:43;2.60;99.30
58638;DHT22;54976;51.510;7.522;2023-04-03T02:19:44;2.40;99.10
58638;DHT22;54976;51.510;7.522;2023-04-03T02:22:45;2.40;99.20
58638;DHT22;54976;51.510;7.522;2023-04-03T02:25:46;2.40;99.30
58638;DHT22;54976;51.510;7.522;2023-04-03T02:28:46;2.50;99.10
58638;DHT22;54976;51.510;7.522;2023-04-03T02:31:47;2.20;99.10
58638;DHT22;54976;51.510;7.522;2023-04-03T02:34:47;2.50;99.20
58638;DHT22;54976;51.510;7.522;2023-04-03T02:37:48;2.30;99.20
58638;DHT22;54976;51.510;7.522;2023-04-03T02:40:49;2.30;99.30
58638;DHT22;54976;51.510;7.522;2023-04-03T02:43:50;2.40;99.40
58638;DHT22;54976;51.510;7.522;2023-04-03T02:46:50;2.20;99.30
58638;DHT22;54976;51.510;7.522;2023-04-03T02:49:51;2.30;99.70
58638;DHT22;54976;51.510;7.522;2023-04-03T02:52:53;2.40;99.70
58638;DHT22;54976;51.510;7.522;2023-04-03T02:55:53;2.10;99.50
58638;DHT22;54976;51.510;7.522;2023-04-03T02:58:54;2.10;99.50
58638;DHT22;54976;51.510;7.522;2023-04-03T03:01:54;2.20;99.50
58638;DHT22;54976;51.510;7.522;2023-04-03T03:04:56;2.20;99.50
58638;DHT22;54976;51.510;7.522;2023-04-03T03:07:56;2.10;99.40
58638;DHT22;54976;51.510;7.522;2023-04-03T03:10:57;2.10;99.90
58638;DHT22;54976;51.510;7.522;2023-04-03T03:13:57;2.00;99.70
58638;DHT22;54976;51.510;7.522;2023-04-03T03:16:58;1.90;99.70
58638;DHT22;54976;51.510;7.522;2023-04-03T03:19:59;2.00;99.90
58638;DHT22;54976;51.510;7.522;2023-04-03T03:22:59;2.00;99.90
58638;DHT22;54976;51.510;7.522;2023-04-03T03:26:03;1.90;99.90
58638;DHT22;54976;51.510;7.522;2023-04-03T03:29:04;2.10;99.90
58638;DHT22;54976;51.510;7.522;2023-04-03T03:32:05;1.70;99.90
58638;DHT22;54976;51.510;7.522;2023-04-03T03:35:06;1.60;99.90
58638;DHT22;54976;51.510;7.522;2023-04-03T03:38:06;1.70;99.90
58638;DHT22;54976;51.510;7.522;2023-04-03T03:41:07;1.90;99.90
58638;DHT22;54976;51.510;7.522;2023-04-03T03:44:07;1.60;99.90
58638;DHT22;54976;51.510;7.522;2023-04-03T03:47:08;1.60;99.90
58638;DHT22;54976;51.510;7.522;2023-04-03T03:50:11;1.20;99.90
58638;DHT22;54976;51.510;7.522;2023-04-03T03:53:11;1.60;99.90
58638;DHT22;54976;51.510;7.522;2023-04-03T03:56:12;1.60;99.90
58638;DHT22;54976;51.510;7.522;2023-04-03T03:59:13;1.50;99.90
58638;DHT22;54976;51.510;7.522;2023-04-03T04:02:13;1.40;99.90
58638;DHT22;54976;51.510;7.522;2023-04-03T04:05:14;1.20;99.90
58638;DHT22;54976;51.510;7.522;2023-04-03T04:08:14;1.50;99.90
58638;DHT22;54976;51.510;7.522;2023-04-03T04:11:15;1.40;99.90
58638;DHT22;54976;51.510;7.522;2023-04-03T04:14:16;1.50;99.90
58638;DHT22;54976;51.510;7.522;2023-04-03T04:17:16;1.60;99.90
58638;DHT22;54976;51.510;7.522;2023-04-03T04:20:17;1.20;99.90
58638;DHT22;54976;51.510;7.522;2023-04-03T04:23:18;1.30;99.90
58638;DHT22;54976;51.510;7.522;2023-04-03T04:26:18;1.30;99.90
58638;DHT22;54976;51.510;7.522;2023-04-03T04:29:19;1.30;99.90
58638;DHT22;54976;51.510;7.522;2023-04-03T04:32:19;1.20;99.90
58638;DHT22;54976;51.510;7.522;2023-04-03T04:35:20;1.20;99.90
58638;DHT22;54976;51.510;7.522;2023-04-03T04:38:21;1.40;99.90
58638;DHT22;54976;51.510;7.522;2023-04-03T04:41:21;1.00;99.90
58638;DHT22;54976;51.510;7.522;2023-04-03T04:44:23;1.00;99.90
58638;DHT22;54976;51.510;7.522;2023-04-03T04:47:23;1.00;99.90
58638;DHT22;54976;51.510;7.522;2023-04-03T04:50:24;1.20;99.90
58638;DHT22;54976;51.510;7.522;2023-04-03T04:53:25;1.20;99.90
58638;DHT22;54976;51.510;7.522;2023-04-03T04:56:26;1.10;99.90
58638;DHT22;54976;51.510;7.522;2023-04-03T04:59:26;1.20;99.90
58638;DHT22;54976;51.510;7.522;2023-04-03T05:02:27;1.30;99.90
58638;DHT22;54976;51.510;7.522;2023-04-03T05:05:28;0.70;99.90
58638;DHT22;54976;51.510;7.522;2023-04-03T05:08:28;0.60;99.90
58638;DHT22;54976;51.510;7.522;2023-04-03T05:11:29;1.00;99.90
58638;DHT22;54976;51.510;7.522;2023-04-03T05:14:30;0.80;99.90
58638;DHT22;54976;51.510;7.522;2023-04-03T05:17:30;0.60;99.90
58638;DHT22;54976;51.510;7.522;2023-04-03T05:20:32;0.90;99.90
58638;DHT22;54976;51.510;7.522;2023-04-03T05:23:33;1.00;99.90
58638;DHT22;54976;51.510;7.522;2023-04-03T05:26:33;0.80;99.90
58638;DHT22;54976;51.510;7.522;2023-04-03T05:29:34;1.10;99.90
58638;DHT22;54976;51.510;7.522;2023-04-03T05:32:34;0.90;99.90
58638;DHT22;54976;51.510;7.522;2023-04-03T05:35:38;1.10;99.90
58638;DHT22;54976;51.510;7.522;2023-04-03T05:38:41;1.00;99.90
58638;DHT22;54976;51.510;7.522;2023-04-03T05:41:42;1.00;99.90
58638;DHT22;54976;51.510;7.522;2023-04-03T05:44:42;0.90;99.90
58638;DHT22;54976;51.510;7.522;2023-04-03T05:47:43;1.00;99.90
58638;DHT22;54976;51.510;7.522;2023-04-03T05:50:44;1.10;99.90
58638;DHT22;54976;51.510;7.522;2023-04-03T05:53:45;0.90;99.90
58638;DHT22;54976;51.510;7.522;2023-04-03T05:56:46;0.90;99.90
58638;DHT22;54976;51.510;7.522;2023-04-03T05:59:47;0.70;99.90
58638;DHT22;54976;51.510;7.522;2023-04-03T06:02:48;1.10;99.90
58638;DHT22;54976;51.510;7.522;2023-04-03T06:05:49;1.10;99.90
58638;DHT22;54976;51.510;7.522;2023-04-03T06:08:50;1.00;99.90
58638;DHT22;54976;51.510;7.522;2023-04-03T06:11:50;1.00;99.90
58638;DHT22;54976;51.510;7.522;2023-04-03T06:14:52;1.10;99.90
58638;DHT22;54976;51.510;7.522;2023-04-03T06:17:52;1.20;99.90
58638;DHT22;54976;51.510;7.522;2023-04-03T06:20:53;1.40;99.90
58638;DHT22;54976;51.510;7.522;2023-04-03T06:23:53;1.40;99.90
58638;DHT22;54976;51.510;7.522;2023-04-03T06:26:54;1.60;99.60
58638;DHT22;54976;51.510;7.522;2023-04-03T06:29:55;1.60;99.40
58638;DHT22;54976;51.510;7.522;2023-04-03T06:32:56;1.70;99.10
58638;DHT22;54976;51.510;7.522;2023-04-03T06:35:58;1.90;98.30
58638;DHT22;54976;51.510;7.522;2023-04-03T06:38:59;2.00;98.10
58638;DHT22;54976;51.510;7.522;2023-04-03T06:41:59;2.50;97.60
58638;DHT22;54976;51.510;7.522;2023-04-03T06:45:00;2.70;96.70
58638;DHT22;54976;51.510;7.522;2023-04-03T06:48:01;3.30;96.80
58638;DHT22;54976;51.510;7.522;2023-04-03T06:51:01;3.20;95.20
58638;DHT22;54976;51.510;7.522;2023-04-03T06:54:03;3.70;92.70
58638;DHT22;54976;51.510;7.522;2023-04-03T06:57:04;3.90;91.50
58638;DHT22;54976;51.510;7.522;2023-04-03T07:00:06;3.70;91.80
58638;DHT22;54976;51.510;7.522;2023-04-03T07:03:07;4.00;91.20
58638;DHT22;54976;51.510;7.522;2023-04-03T07:06:12;4.10;90.30
58638;DHT22;54976;51.510;7.522;2023-04-03T07:09:14;4.30;90.10
58638;DHT22;54976;51.510;7.522;2023-04-03T07:12:15;4.20;88.50
58638;DHT22;54976;51.510;7.522;2023-04-03T07:15:16;4.70;87.10
58638;DHT22;54976;51.510;7.522;2023-04-03T07:18:17;4.80;84.80
58638;DHT22;54976;51.510;7.522;2023-04-03T07:21:18;4.70;83.80
58638;DHT22;54976;51.510;7.522;2023-04-03T07:24:18;4.90;83.80
58638;DHT22;54976;51.510;7.522;2023-04-03T07:27:19;5.00;83.00
58638;DHT22;54976;51.510;7.522;2023-04-03T07:30:20;4.80;81.50
58638;DHT22;54976;51.510;7.522;2023-04-03T07:33:22;5.00;80.80
58638;DHT22;54976;51.510;7.522;2023-04-03T07:36:23;5.00;79.10
58638;DHT22;54976;51.510;7.522;2023-04-03T07:39:24;5.10;80.40
58638;DHT22;54976;51.510;7.522;2023-04-03T07:42:25;5.20;78.00
58638;DHT22;54976;51.510;7.522;2023-04-03T07:45:29;5.10;79.00
58638;DHT22;54976;51.510;7.522;2023-04-03T07:48:31;5.10;78.90
58638;DHT22;54976;51.510;7.522;2023-04-03T07:51:31;5.00;78.50
58638;DHT22;54976;51.510;7.522;2023-04-03T07:54:32;5.10;80.70
58638;DHT22;54976;51.510;7.522;2023-04-03T07:57:34;5.10;78.80
58638;DHT22;54976;51.510;7.522;2023-04-03T08:00:34;5.20;77.30
58638;DHT22;54976;51.510;7.522;2023-04-03T08:03:35;5.20;79.40
58638;DHT22;54976;51.510;7.522;2023-04-03T08:06:37;5.50;77.80
58638;DHT22;54976;51.510;7.522;2023-04-03T08:09:38;6.00;73.10
58638;DHT22;54976;51.510;7.522;2023-04-03T08:12:38;6.50;70.50
58638;DHT22;54976;51.510;7.522;2023-04-03T08:15:39;6.70;68.30
58638;DHT22;54976;51.510;7.522;2023-04-03T08:18:40;7.30;65.80
58638;DHT22;54976;51.510;7.522;2023-04-03T08:21:40;7.50;60.60
58638;DHT22;54976;51.510;7.522;2023-04-03T08:24:41;7.40;62.70
58638;DHT22;54976;51.510;7.522;2023-04-03T08:27:42;7.70;60.90
58638;DHT22;54976;51.510;7.522;2023-04-03T08:30:43;8.20;58.20
58638;DHT22;54976;51.510;7.522;2023-04-03T08:33:44;8.10;57.10
58638;DHT22;54976;51.510;7.522;2023-04-03T08:36:45;7.70;56.90
58638;DHT22;54976;51.510;7.522;2023-04-03T08:39:46;7.40;57.40
58638;DHT22;54976;51.510;7.522;2023-04-03T08:42:51;7.40;58.40
58638;DHT22;54976;51.510;7.522;2023-04-03T08:45:55;7.10;57.70
58638;DHT22;54976;51.510;7.522;2023-04-03T08:48:58;7.10;58.30
58638;DHT22;54976;51.510;7.522;2023-04-03T08:52:05;6.90;57.80
58638;DHT22;54976;51.510;7.522;2023-04-03T08:55:31;6.90;56.20
58638;DHT22;54976;51.510;7.522;2023-04-03T08:58:44;7.90;55.10
58638;DHT22;54976;51.510;7.522;2023-04-03T09:01:45;8.00;52.90
58638;DHT22;54976;51.510;7.522;2023-04-03T09:04:46;7.70;54.00
58638;DHT22;54976;51.510;7.522;2023-04-03T09:07:57;8.10;53.50
58638;DHT22;54976;51.510;7.522;2023-04-03T09:14:38;8.30;51.00
58638;DHT22;54976;51.510;7.522;2023-04-03T09:21:04;9.00;50.30
58638;DHT22;54976;51.510;7.522;2023-04-03T09:24:10;8.90;49.80
58638;DHT22;54976;51.510;7.522;2023-04-03T09:27:12;8.80;49.30
58638;DHT22;54976;51.510;7.522;2023-04-03T09:30:21;8.80;49.90
58638;DHT22;54976;51.510;7.522;2023-04-03T09:33:22;9.10;50.30
58638;DHT22;54976;51.510;7.522;2023-04-03T09:36:49;9.70;49.20
58638;DHT22;54976;51.510;7.522;2023-04-03T09:39:53;10.00;46.00
58638;DHT22;54976;51.510;7.522;2023-04-03T09:42:57;9.50;46.30
58638;DHT22;54976;51.510;7.522;2023-04-03T09:49:31;10.00;44.80
58638;DHT22;54976;51.510;7.522;2023-04-03T09:52:31;10.00;45.10
58638;DHT22;54976;51.510;7.522;2023-04-03T09:55:43;10.80;42.90
58638;DHT22;54976;51.510;7.522;2023-04-03T09:58:45;10.70;42.00
58638;DHT22;54976;51.510;7.522;2023-04-03T10:02:28;11.30;43.60
58638;DHT22;54976;51.510;7.522;2023-04-03T10:05:39;11.80;40.70
58638;DHT22;54976;51.510;7.522;2023-04-03T10:08:40;12.90;39.50
58638;DHT22;54976;51.510;7.522;2023-04-03T10:15:12;12.80;38.20
58638;DHT22;54976;51.510;7.522;2023-04-03T10:18:44;12.30;37.50
58638;DHT22;54976;51.510;7.522;2023-04-03T10:28:35;12.00;38.60
58638;DHT22;54976;51.510;7.522;2023-04-03T10:52:22;10.90;38.50
58638;DHT22;54976;51.510;7.522;2023-04-03T10:58:38;10.90;37.90
58638;DHT22;54976;51.510;7.522;2023-04-03T11:01:42;10.30;38.10
58638;DHT22;54976;51.510;7.522;2023-04-03T11:04:48;11.20;39.30
58638;DHT22;54976;51.510;7.522;2023-04-03T11:07:53;11.10;37.50
58638;DHT22;54976;51.510;7.522;2023-04-03T11:11:06;10.70;36.20
58638;DHT22;54976;51.510;7.522;2023-04-03T11:20:31;11.00;39.00
58638;DHT22;54976;51.510;7.522;2023-04-03T11:23:40;11.40;37.80
58638;DHT22;54976;51.510;7.522;2023-04-03T11:26:41;11.30;37.10
58638;DHT22;54976;51.510;7.522;2023-04-03T11:29:43;11.00;36.80
58638;DHT22;54976;51.510;7.522;2023-04-03T11:36:18;9.60;37.60
58638;DHT22;54976;51.510;7.522;2023-04-03T11:39:34;9.80;38.40
58638;DHT22;54976;51.510;7.522;2023-04-03T11:42:38;10.00;38.60
58638;DHT22;54976;51.510;7.522;2023-04-03T11:45:58;10.10;37.90
58638;DHT22;54976;51.510;7.522;2023-04-03T11:48:59;10.10;37.50
58638;DHT22;54976;51.510;7.522;2023-04-03T11:52:00;10.10;38.80
58638;DHT22;54976;51.510;7.522;2023-04-03T11:55:01;10.30;37.10
58638;DHT22;54976;51.510;7.522;2023-04-03T11:58:04;10.50;35.60
58638;DHT22;54976;51.510;7.522;2023-04-03T12:05:25;10.80;36.90
58638;DHT22;54976;51.510;7.522;2023-04-03T12:11:34;10.90;36.50
58638;DHT22;54976;51.510;7.522;2023-04-03T12:14:36;10.60;36.50
58638;DHT22;54976;51.510;7.522;2023-04-03T12:17:36;10.50;35.90
58638;DHT22;54976;51.510;7.522;2023-04-03T12:21:06;10.80;36.40
58638;DHT22;54976;51.510;7.522;2023-04-03T12:27:33;10.80;35.40
58638;DHT22;54976;51.510;7.522;2023-04-03T12:30:35;11.10;36.80
58638;DHT22;54976;51.510;7.522;2023-04-03T12:40:57;13.10;32.70
58638;DHT22;54976;51.510;7.522;2023-04-03T12:47:35;13.90;32.10
58638;DHT22;54976;51.510;7.522;2023-04-03T12:50:40;13.90;31.90
58638;DHT22;54976;51.510;7.522;2023-04-03T12:53:42;14.90;31.30
58638;DHT22;54976;51.510;7.522;2023-04-03T12:56:44;14.50;31.30
58638;DHT22;54976;51.510;7.522;2023-04-03T12:59:45;14.80;31.30
58638;DHT22;54976;51.510;7.522;2023-04-03T13:02:47;16.00;30.00
58638;DHT22;54976;51.510;7.522;2023-04-03T13:05:48;16.00;29.60
58638;DHT22;54976;51.510;7.522;2023-04-03T13:08:50;15.00;30.20
58638;DHT22;54976;51.510;7.522;2023-04-03T13:11:57;14.10;30.20
58638;DHT22;54976;51.510;7.522;2023-04-03T13:15:02;13.40;31.40
58638;DHT22;54976;51.510;7.522;2023-04-03T13:18:04;14.30;32.00
58638;DHT22;54976;51.510;7.522;2023-04-03T13:21:15;14.40;32.00
58638;DHT22;54976;51.510;7.522;2023-04-03T13:24:17;14.80;31.10
58638;DHT22;54976;51.510;7.522;2023-04-03T13:27:18;14.60;30.50
58638;DHT22;54976;51.510;7.522;2023-04-03T13:33:26;15.60;30.50
58638;DHT22;54976;51.510;7.522;2023-04-03T13:36:31;15.40;30.10
58638;DHT22;54976;51.510;7.522;2023-04-03T13:39:35;16.20;31.10
58638;DHT22;54976;51.510;7.522;2023-04-03T13:42:39;15.90;29.40
58638;DHT22;54976;51.510;7.522;2023-04-03T13:49:21;15.30;30.90
58638;DHT22;54976;51.510;7.522;2023-04-03T13:52:38;15.30;31.50
58638;DHT22;54976;51.510;7.522;2023-04-03T13:56:07;15.50;29.50
58638;DHT22;54976;51.510;7.522;2023-04-03T14:05:18;15.50;29.70
58638;DHT22;54976;51.510;7.522;2023-04-03T14:08:21;14.80;30.20
58638;DHT22;54976;51.510;7.522;2023-04-03T14:11:26;15.30;30.30
58638;DHT22;54976;51.510;7.522;2023-04-03T14:14:31;16.80;29.20
58638;DHT22;54976;51.510;7.522;2023-04-03T14:17:32;17.90;29.10
58638;DHT22;54976;51.510;7.522;2023-04-03T14:20:33;17.40;27.50
58638;DHT22;54976;51.510;7.522;2023-04-03T14:23:34;17.30;27.70
58638;DHT22;54976;51.510;7.522;2023-04-03T14:26:35;15.70;28.70
58638;DHT22;54976;51.510;7.522;2023-04-03T14:29:35;16.20;29.50
58638;DHT22;54976;51.510;7.522;2023-04-03T14:32:36;16.60;29.80
58638;DHT22;54976;51.510;7.522;2023-04-03T14:35:37;16.10;30.00
58638;DHT22;54976;51.510;7.522;2023-04-03T14:38:38;14.50;30.70
58638;DHT22;54976;51.510;7.522;2023-04-03T14:41:38;15.30;30.40
58638;DHT22;54976;51.510;7.522;2023-04-03T14:44:39;16.00;29.30
58638;DHT22;54976;51.510;7.522;2023-04-03T14:47:46;16.70;28.70
58638;DHT22;54976;51.510;7.522;2023-04-03T14:50:51;16.80;28.60
58638;DHT22;54976;51.510;7.522;2023-04-03T14:53:51;17.00;28.50
58638;DHT22;54976;51.510;7.522;2023-04-03T14:56:57;16.80;29.00
58638;DHT22;54976;51.510;7.522;2023-04-03T14:59:58;15.90;28.90
58638;DHT22;54976;51.510;7.522;2023-04-03T15:02:59;15.60;29.50
58638;DHT22;54976;51.510;7.522;2023-04-03T15:06:00;15.60;29.60
58638;DHT22;54976;51.510;7.522;2023-04-03T15:09:01;15.60;29.00
58638;DHT22;54976;51.510;7.522;2023-04-03T15:12:03;14.80;29.90
58638;DHT22;54976;51.510;7.522;2023-04-03T15:15:03;14.70;30.00
58638;DHT22;54976;51.510;7.522;2023-04-03T15:18:05;14.40;30.40
58638;DHT22;54976;51.510;7.522;2023-04-03T15:21:06;13.90;31.20
58638;DHT22;54976;51.510;7.522;2023-04-03T15:24:08;14.00;31.60
58638;DHT22;54976;51.510;7.522;2023-04-03T15:27:10;13.50;33.30
58638;DHT22;54976;51.510;7.522;2023-04-03T15:30:16;13.50;32.90
58638;DHT22;54976;51.510;7.522;2023-04-03T15:33:16;13.00;33.00
58638;DHT22;54976;51.510;7.522;2023-04-03T15:36:17;12.80;32.70
58638;DHT22;54976;51.510;7.522;2023-04-03T15:39:18;12.50;34.00
58638;DHT22;54976;51.510;7.522;2023-04-03T15:42:18;12.60;34.20
58638;DHT22;54976;51.510;7.522;2023-04-03T15:45:19;12.20;33.50
58638;DHT22;54976;51.510;7.522;2023-04-03T15:48:21;11.80;33.80
58638;DHT22;54976;51.510;7.522;2023-04-03T15:51:21;11.70;34.30
58638;DHT22;54976;51.510;7.522;2023-04-03T15:54:22;11.70;34.50
58638;DHT22;54976;51.510;7.522;2023-04-03T15:57:24;11.40;35.40
58638;DHT22;54976;51.510;7.522;2023-04-03T16:00:27;11.20;35.00
58638;DHT22;54976;51.510;7.522;2023-04-03T16:03:28;10.70;35.20
58638;DHT22;54976;51.510;7.522;2023-04-03T16:06:29;10.70;35.70
58638;DHT22;54976;51.510;7.522;2023-04-03T16:09:34;10.80;35.10
58638;DHT22;54976;51.510;7.522;2023-04-03T16:12:35;11.10;35.00
58638;DHT22;54976;51.510;7.522;2023-04-03T16:15:36;11.00;34.90
58638;DHT22;54976;51.510;7.522;2023-04-03T16:18:37;10.80;36.30
58638;DHT22;54976;51.510;7.522;2023-04-03T16:21:38;10.60;37.10
58638;DHT22;54976;51.510;7.522;2023-04-03T16:24:38;10.20;37.60
58638;DHT22;54976;51.510;7.522;2023-04-03T16:27:39;9.70;38.60
58638;DHT22;54976;51.510;7.522;2023-04-03T16:30:44;9.70;39.60
58638;DHT22;54976;51.510;7.522;2023-04-03T16:33:45;10.00;37.70
58638;DHT22;54976;51.510;7.522;2023-04-03T16:36:46;9.80;37.90
58638;DHT22;54976;51.510;7.522;2023-04-03T16:39:47;9.40;38.80
58638;DHT22;54976;51.510;7.522;2023-04-03T16:42:47;9.40;39.50
58638;DHT22;54976;51.510;7.522;2023-04-03T16:45:48;9.50;39.60
58638;DHT22;54976;51.510;7.522;2023-04-03T16:48:49;9.40;39.80
58638;DHT22;54976;51.510;7.522;2023-04-03T16:51:49;9.20;40.00
58638;DHT22;54976;51.510;7.522;2023-04-03T16:54:50;8.90;40.20
58638;DHT22;54976;51.510;7.522;2023-04-03T16:57:55;8.70;40.80
58638;DHT22;54976;51.510;7.522;2023-04-03T17:00:56;8.50;40.80
58638;DHT22;54976;51.510;7.522;2023-04-03T17:03:56;8.40;40.50
58638;DHT22;54976;51.510;7.522;2023-04-03T17:06:57;8.20;41.10
58638;DHT22;54976;51.510;7.522;2023-04-03T17:09:58;8.10;41.00
58638;DHT22;54976;51.510;7.522;2023-04-03T17:12:58;8.10;41.00
58638;DHT22;54976;51.510;7.522;2023-04-03T17:15:59;7.90;41.20
58638;DHT22;54976;51.510;7.522;2023-04-03T17:19:02;7.80;41.50
58638;DHT22;54976;51.510;7.522;2023-04-03T17:22:03;7.80;41.90
58638;DHT22;54976;51.510;7.522;2023-04-03T17:25:05;7.80;41.60
58638;DHT22;54976;51.510;7.522;2023-04-03T17:28:06;7.70;41.80
58638;DHT22;54976;51.510;7.522;2023-04-03T17:31:07;7.50;42.10
58638;DHT22;54976;51.510;7.522;2023-04-03T17:34:07;7.50;42.50
58638;DHT22;54976;51.510;7.522;2023-04-03T17:37:11;7.40;42.50
58638;DHT22;54976;51.510;7.522;2023-04-03T17:40:11;7.40;42.20
58638;DHT22;54976;51.510;7.522;2023-04-03T17:43:13;7.30;42.40
58638;DHT22;54976;51.510;7.522;2023-04-03T17:46:14;7.30;43.00
58638;DHT22;54976;51.510;7.522;2023-04-03T17:49:16;7.10;43.30
58638;DHT22;54976;51.510;7.522;2023-04-03T17:52:18;7.00;43.60
58638;DHT22;54976;51.510;7.522;2023-04-03T17:55:18;6.90;43.90
58638;DHT22;54976;51.510;7.522;2023-04-03T17:58:19;7.00;44.10
58638;DHT22;54976;51.510;7.522;2023-04-03T18:01:26;6.90;44.00
58638;DHT22;54976;51.510;7.522;2023-04-03T18:04:26;6.80;44.30
58638;DHT22;54976;51.510;7.522;2023-04-03T18:07:30;6.70;44.40
58638;DHT22;54976;51.510;7.522;2023-04-03T18:10:31;6.70;44.70
58638;DHT22;54976;51.510;7.522;2023-04-03T18:13:32;6.60;44.90
58638;DHT22;54976;51.510;7.522;2023-04-03T18:16:33;6.50;45.20
58638;DHT22;54976;51.510;7.522;2023-04-03T18:19:34;6.40;45.60
58638;DHT22;54976;51.510;7.522;2023-04-03T18:22:35;6.30;45.60
58638;DHT22;54976;51.510;7.522;2023-04-03T18:25:36;6.30;45.60
58638;DHT22;54976;51.510;7.522;2023-04-03T18:28:40;6.20;45.90
58638;DHT22;54976;51.510;7.522;2023-04-03T18:31:45;6.20;45.90
58638;DHT22;54976;51.510;7.522;2023-04-03T18:34:46;6.10;46.00
58638;DHT22;54976;51.510;7.522;2023-04-03T18:37:47;6.00;46.30
58638;DHT22;54976;51.510;7.522;2023-04-03T18:40:48;6.00;46.70
58638;DHT22;54976;51.510;7.522;2023-04-03T18:43:49;5.80;46.80
58638;DHT22;54976;51.510;7.522;2023-04-03T18:46:51;5.70;47.10
58638;DHT22;54976;51.510;7.522;2023-04-03T18:49:53;5.70;47.60
58638;DHT22;54976;51.510;7.522;2023-04-03T18:52:53;5.60;47.90
58638;DHT22;54976;51.510;7.522;2023-04-03T18:55:54;5.60;48.30
58638;DHT22;54976;51.510;7.522;2023-04-03T18:58:54;5.60;48.30
58638;DHT22;54976;51.510;7.522;2023-04-03T19:01:55;5.60;48.70
58638;DHT22;54976;51.510;7.522;2023-04-03T19:04:56;5.50;49.30
58638;DHT22;54976;51.510;7.522;2023-04-03T19:07:56;5.40;49.10
58638;DHT22;54976;51.510;7.522;2023-04-03T19:10:57;5.40;49.30
58638;DHT22;54976;51.510;7.522;2023-04-03T19:13:58;5.30;49.50
58638;DHT22;54976;51.510;7.522;2023-04-03T19:16:59;5.20;49.70
58638;DHT22;54976;51.510;7.522;2023-04-03T19:20:02;5.10;50.10
58638;DHT22;54976;51.510;7.522;2023-04-03T19:23:03;5.10;50.30
58638;DHT22;54976;51.510;7.522;2023-04-03T19:26:06;5.00;50.40
58638;DHT22;54976;51.510;7.522;2023-04-03T19:29:08;5.00;50.80
58638;DHT22;54976;51.510;7.522;2023-04-03T19:32:08;5.00;51.10
58638;DHT22;54976;51.510;7.522;2023-04-03T19:35:10;4.80;51.70
58638;DHT22;54976;51.510;7.522;2023-04-03T19:38:10;4.80;51.20
58638;DHT22;54976;51.510;7.522;2023-04-03T19:41:15;4.80;51.70
58638;DHT22;54976;51.510;7.522;2023-04-03T19:44:16;4.70;51.90
58638;DHT22;54976;51.510;7.522;2023-04-03T19:47:17;4.70;51.80
58638;DHT22;54976;51.510;7.522;2023-04-03T19:50:18;4.70;52.10
58638;DHT22;54976;51.510;7.522;2023-04-03T19:53:19;4.60;51.90
58638;DHT22;54976;51.510;7.522;2023-04-03T19:56:21;4.70;52.10
58638;DHT22;54976;51.510;7.522;2023-04-03T19:59:23;4.70;52.10
58638;DHT22;54976;51.510;7.522;2023-04-03T20:02:23;4.70;51.70
58638;DHT22;54976;51.510;7.522;2023-04-03T20:05:24;4.20;51.70
58638;DHT22;54976;51.510;7.522;2023-04-03T20:08:25;4.60;52.00
58638;DHT22;54976;51.510;7.522;2023-04-03T20:11:27;4.80;52.20
58638;DHT22;54976;51.510;7.522;2023-04-03T20:14:28;4.50;52.10
58638;DHT22;54976;51.510;7.522;2023-04-03T20:17:29;4.40;52.50
58638;DHT22;54976;51.510;7.522;2023-04-03T20:20:31;4.50;52.40
58638;DHT22;54976;51.510;7.522;2023-04-03T20:23:32;4.50;52.70
58638;DHT22;54976;51.510;7.522;2023-04-03T20:26:34;4.40;52.90
58638;DHT22;54976;51.510;7.522;2023-04-03T20:29:36;4.30;52.80
58638;DHT22;54976;51.510;7.522;2023-04-03T20:32:37;4.30;53.50
58638;DHT22;54976;51.510;7.522;2023-04-03T20:35:38;4.50;53.10
58638;DHT22;54976;51.510;7.522;2023-04-03T20:38:39;4.30;52.90
58638;DHT22;54976;51.510;7.522;2023-04-03T20:41:39;4.60;53.30
58638;DHT22;54976;51.510;7.522;2023-04-03T20:44:40;4.30;53.40
58638;DHT22;54976;51.510;7.522;2023-04-03T20:47:43;3.80;52.70
58638;DHT22;54976;51.510;7.522;2023-04-03T20:50:44;3.80;52.80
58638;DHT22;54976;51.510;7.522;2023-04-03T20:53:46;4.30;53.20
58638;DHT22;54976;51.510;7.522;2023-04-03T20:56:47;4.30;53.20
58638;DHT22;54976;51.510;7.522;2023-04-03T20:59:51;4.10;53.20
58638;DHT22;54976;51.510;7.522;2023-04-03T21:02:52;4.30;53.70
58638;DHT22;54976;51.510;7.522;2023-04-03T21:19:21;3.70;54.40